createdAt,value
2023-12-22T00:02:24.819Z,1.30
2023-12-22T00:04:52.181Z,0.47
2023-12-22T00:07:21.899Z,0.80
2023-12-22T00:09:49.349Z,1.07
2023-12-22T00:12:16.488Z,0.40
2023-12-22T00:14:44.040Z,1.60
2023-12-22T00:17:11.329Z,1.13
2023-12-22T00:19:38.776Z,2.13
2023-12-22T00:22:06.307Z,0.73
2023-12-22T00:24:33.465Z,2.57
2023-12-22T00:27:00.730Z,0.50
2023-12-22T00:29:29.982Z,0.50
2023-12-22T00:31:57.630Z,0.70
2023-12-22T00:34:24.907Z,2.43
2023-12-22T00:36:52.285Z,1.37
2023-12-22T00:39:19.470Z,1.67
2023-12-22T00:41:46.914Z,1.20
2023-12-22T00:44:14.405Z,0.90
2023-12-22T00:46:41.669Z,0.83
2023-12-22T00:49:08.955Z,0.60
2023-12-22T00:51:36.243Z,0.70
2023-12-22T00:54:03.603Z,0.90
2023-12-22T00:56:30.754Z,1.37
2023-12-22T00:59:04.978Z,1.63
2023-12-22T01:01:36.661Z,0.93
2023-12-22T01:04:04.391Z,1.10
2023-12-22T01:06:32.584Z,0.67
2023-12-22T01:09:00.232Z,0.60
2023-12-22T01:11:28.187Z,1.00
2023-12-22T01:13:55.437Z,1.27
2023-12-22T01:16:24.254Z,1.17
2023-12-22T01:18:54.532Z,5.30
2023-12-22T01:21:22.160Z,1.30
2023-12-22T01:23:49.523Z,1.10
2023-12-22T01:26:16.964Z,2.87
2023-12-22T01:28:44.714Z,2.10
2023-12-22T01:31:11.971Z,2.07
2023-12-22T01:33:39.551Z,2.97
2023-12-22T01:36:06.909Z,2.47
2023-12-22T01:38:34.055Z,1.03
2023-12-22T01:41:01.308Z,1.97
2023-12-22T01:43:31.452Z,1.20
2023-12-22T01:46:01.055Z,0.73
2023-12-22T01:48:30.029Z,1.50
2023-12-22T01:50:59.937Z,0.90
2023-12-22T01:53:28.892Z,4.53
2023-12-22T01:55:57.689Z,1.60
2023-12-22T01:58:25.876Z,1.40
2023-12-22T02:00:54.846Z,3.30
2023-12-22T02:03:23.250Z,1.43
2023-12-22T02:05:50.990Z,1.20
2023-12-22T02:08:19.941Z,1.57
2023-12-22T02:10:47.320Z,1.43
2023-12-22T02:13:14.982Z,1.07
2023-12-22T02:15:45.886Z,0.73
2023-12-22T02:18:22.374Z,1.67
2023-12-22T02:20:50.487Z,0.80
2023-12-22T02:23:17.702Z,0.60
2023-12-22T02:25:45.070Z,0.73
2023-12-22T02:28:18.148Z,2.83
2023-12-22T02:31:05.478Z,11.97
2023-12-22T02:33:35.630Z,1.53
2023-12-22T02:36:05.711Z,2.30
2023-12-22T02:38:34.172Z,1.03
2023-12-22T02:41:01.825Z,1.30
2023-12-22T02:43:30.406Z,1.20
2023-12-22T02:45:57.781Z,1.80
2023-12-22T02:48:25.358Z,0.87
2023-12-22T02:50:52.622Z,0.57
2023-12-22T02:53:19.971Z,1.13
2023-12-22T02:55:47.296Z,1.77
2023-12-22T02:58:14.382Z,0.73
2023-12-22T03:00:41.744Z,1.03
2023-12-22T03:03:09.128Z,1.73
2023-12-22T03:05:36.337Z,1.90
2023-12-22T03:08:04.037Z,1.43
2023-12-22T03:10:31.999Z,1.43
2023-12-22T03:12:59.222Z,0.83
2023-12-22T03:15:27.090Z,1.87
2023-12-22T03:17:56.091Z,1.80
2023-12-22T03:20:23.230Z,3.23
2023-12-22T03:22:50.418Z,1.30
2023-12-22T03:25:17.811Z,2.00
2023-12-22T03:27:47.378Z,0.70
2023-12-22T03:30:14.962Z,1.97
2023-12-22T03:32:42.187Z,0.77
2023-12-22T03:35:10.016Z,0.83
2023-12-22T03:37:37.211Z,0.93
2023-12-22T03:40:05.186Z,3.67
2023-12-22T03:42:32.273Z,0.63
2023-12-22T03:44:59.335Z,1.60
2023-12-22T03:47:26.670Z,1.67
2023-12-22T03:49:53.890Z,2.97
2023-12-22T03:52:21.518Z,1.37
2023-12-22T03:54:48.905Z,1.83
2023-12-22T03:57:16.123Z,1.00
2023-12-22T03:59:44.865Z,0.83
2023-12-22T04:02:12.275Z,0.80
2023-12-22T04:04:40.032Z,0.83
2023-12-22T04:07:07.426Z,0.70
2023-12-22T04:09:34.843Z,1.43
2023-12-22T04:12:01.939Z,1.10
2023-12-22T04:14:29.074Z,1.00
2023-12-22T04:16:56.327Z,0.83
2023-12-22T04:19:23.696Z,0.53
2023-12-22T04:21:50.987Z,0.60
2023-12-22T04:24:18.360Z,0.30
2023-12-22T04:26:45.513Z,0.60
2023-12-22T04:29:12.810Z,0.77
2023-12-22T04:31:39.980Z,0.50
2023-12-22T04:34:07.151Z,0.97
2023-12-22T04:36:34.268Z,0.40
2023-12-22T04:39:01.486Z,1.17
2023-12-22T04:41:28.623Z,0.50
2023-12-22T04:43:55.908Z,0.50
2023-12-22T04:46:23.215Z,1.87
2023-12-22T04:48:50.581Z,1.80
2023-12-22T04:51:17.723Z,0.40
2023-12-22T04:53:45.019Z,0.50
2023-12-22T04:56:12.334Z,0.57
2023-12-22T04:58:39.486Z,0.40
2023-12-22T05:01:06.768Z,0.43
2023-12-22T05:03:33.960Z,0.47
2023-12-22T05:06:01.592Z,1.00
2023-12-22T05:08:28.857Z,0.40
2023-12-22T05:10:56.141Z,0.30
2023-12-22T05:13:23.510Z,0.50
2023-12-22T05:15:51.996Z,0.90
2023-12-22T05:18:19.388Z,1.13
2023-12-22T05:20:46.655Z,0.60
2023-12-22T05:23:14.129Z,0.50
2023-12-22T05:25:42.055Z,0.90
2023-12-22T05:28:09.409Z,0.60
2023-12-22T05:30:36.701Z,0.80
2023-12-22T05:33:04.044Z,2.20
2023-12-22T05:35:31.537Z,1.33
2023-12-22T05:37:58.930Z,0.73
2023-12-22T05:40:26.132Z,0.90
2023-12-22T05:42:53.423Z,1.00
2023-12-22T05:45:20.660Z,1.90
2023-12-22T05:47:48.628Z,0.70
2023-12-22T05:50:16.377Z,0.60
2023-12-22T05:52:45.176Z,0.70
2023-12-22T05:55:12.354Z,0.90
2023-12-22T05:57:39.575Z,0.60
2023-12-22T06:00:08.726Z,0.90
2023-12-22T06:02:37.556Z,1.03
2023-12-22T06:05:05.017Z,0.80
2023-12-22T06:07:32.176Z,1.60
2023-12-22T06:09:59.461Z,1.40
2023-12-22T06:12:27.123Z,0.97
2023-12-22T06:14:54.266Z,2.90
2023-12-22T06:17:21.432Z,1.90
2023-12-22T06:19:48.523Z,0.90
2023-12-22T06:22:15.708Z,1.00
2023-12-22T06:24:42.756Z,1.03
2023-12-22T06:27:10.020Z,1.33
2023-12-22T06:29:37.144Z,1.30
2023-12-22T06:32:07.405Z,3.27
2023-12-22T06:34:34.977Z,1.63
2023-12-22T06:37:02.267Z,1.30
2023-12-22T06:39:29.392Z,1.93
2023-12-22T06:41:56.530Z,0.97
2023-12-22T06:44:23.847Z,1.33
2023-12-22T06:46:51.285Z,1.43
2023-12-22T06:49:18.698Z,2.00
2023-12-22T06:51:46.034Z,1.27
2023-12-22T06:54:15.387Z,1.90
2023-12-22T06:56:43.986Z,0.80
2023-12-22T06:59:15.368Z,1.87
2023-12-22T07:01:51.331Z,2.43
2023-12-22T07:04:25.487Z,1.63
2023-12-22T07:06:52.791Z,1.30
2023-12-22T07:09:20.013Z,3.60
2023-12-22T07:11:52.344Z,2.67
2023-12-22T07:14:19.703Z,1.50
2023-12-22T07:16:46.845Z,1.33
2023-12-22T07:19:14.748Z,3.17
2023-12-22T07:21:44.631Z,1.87
2023-12-22T07:24:15.136Z,1.63
2023-12-22T07:26:46.080Z,1.90
2023-12-22T07:29:13.946Z,2.23
2023-12-22T07:31:41.689Z,1.53
2023-12-22T07:34:09.833Z,1.87
2023-12-22T07:36:43.642Z,1.13
2023-12-22T07:39:17.341Z,1.53
2023-12-22T07:41:45.199Z,1.77
2023-12-22T07:44:12.613Z,4.30
2023-12-22T07:46:40.851Z,1.63
2023-12-22T07:49:09.715Z,2.03
2023-12-22T07:51:36.903Z,2.97
2023-12-22T07:54:04.201Z,1.70
2023-12-22T07:56:31.376Z,7.87
2023-12-22T07:59:09.165Z,1.37
2023-12-22T08:01:46.160Z,2.90
2023-12-22T08:04:13.215Z,2.00
2023-12-22T08:06:40.444Z,2.20
2023-12-22T08:09:08.199Z,4.80
2023-12-22T08:11:35.450Z,1.77
2023-12-22T08:14:02.578Z,2.13
2023-12-22T08:16:29.917Z,2.30
2023-12-22T08:18:57.105Z,1.70
2023-12-22T08:21:29.544Z,2.27
2023-12-22T08:24:06.152Z,2.70
2023-12-22T08:26:33.552Z,2.60
2023-12-22T08:29:00.803Z,3.03
2023-12-22T08:31:28.367Z,3.07
2023-12-22T08:33:55.518Z,3.93
2023-12-22T08:36:22.701Z,2.07
2023-12-22T08:38:50.607Z,2.43
2023-12-22T08:41:18.430Z,2.50
2023-12-22T08:43:45.901Z,2.60
2023-12-22T08:46:14.202Z,3.47
2023-12-22T08:48:41.460Z,2.27
2023-12-22T08:51:08.618Z,3.67
2023-12-22T08:53:38.480Z,2.40
2023-12-22T08:56:07.009Z,2.70
2023-12-22T08:58:34.200Z,3.27
2023-12-22T09:01:01.619Z,3.40
2023-12-22T09:03:29.506Z,2.33
2023-12-22T09:05:56.604Z,3.60
2023-12-22T09:08:23.984Z,3.20
2023-12-22T09:10:51.302Z,3.20
2023-12-22T09:13:18.492Z,5.23
2023-12-22T09:15:48.082Z,3.97
2023-12-22T09:18:15.480Z,3.77
2023-12-22T09:20:42.716Z,3.13
2023-12-22T09:23:11.560Z,2.63
2023-12-22T09:25:38.724Z,2.80
2023-12-22T09:28:08.311Z,5.93
2023-12-22T09:30:35.681Z,3.13
2023-12-22T09:33:03.098Z,3.23
2023-12-22T09:35:30.266Z,5.63
2023-12-22T09:37:57.529Z,4.73
2023-12-22T09:40:24.826Z,3.83
2023-12-22T09:42:57.526Z,3.33
2023-12-22T09:45:26.035Z,3.07
2023-12-22T09:47:54.476Z,3.93
2023-12-22T09:50:22.607Z,3.60
2023-12-22T09:52:50.299Z,2.83
2023-12-22T09:55:18.801Z,2.80
2023-12-22T09:57:47.829Z,5.63
2023-12-22T10:00:16.913Z,5.90
2023-12-22T10:02:46.811Z,3.07
2023-12-22T10:05:14.559Z,4.37
2023-12-22T10:07:46.963Z,3.73
2023-12-22T10:10:15.238Z,4.33
2023-12-22T10:12:45.715Z,3.50
2023-12-22T10:15:14.327Z,5.67
2023-12-22T10:20:10.418Z,5.70
2023-12-22T10:22:37.994Z,3.90
2023-12-22T10:25:08.368Z,5.83
2023-12-22T10:27:37.983Z,3.87
2023-12-22T10:30:06.024Z,3.93
2023-12-22T10:32:33.286Z,4.20
2023-12-22T10:35:00.676Z,3.87
2023-12-22T10:37:28.054Z,3.80
2023-12-22T10:39:56.290Z,3.83
2023-12-22T10:42:23.755Z,4.80
2023-12-22T10:44:52.984Z,4.43
2023-12-22T10:47:22.884Z,4.17
2023-12-22T10:49:50.592Z,4.77
2023-12-22T10:52:24.923Z,4.10
2023-12-22T10:54:52.210Z,3.83
2023-12-22T10:57:22.574Z,5.90
2023-12-22T11:02:21.228Z,5.70
2023-12-22T11:05:07.480Z,6.47
2023-12-22T11:07:39.683Z,5.97
2023-12-22T11:10:08.453Z,6.67
2023-12-22T11:12:39.251Z,5.57
2023-12-22T11:15:08.286Z,7.40
2023-12-22T11:17:37.072Z,4.43
2023-12-22T11:20:05.994Z,4.80
2023-12-22T11:22:35.488Z,4.90
2023-12-22T11:25:04.297Z,4.93
2023-12-22T11:27:34.503Z,6.33
2023-12-22T11:30:03.900Z,5.13
2023-12-22T11:32:31.520Z,5.73
2023-12-22T11:35:01.134Z,6.57
2023-12-22T11:37:28.343Z,10.13
2023-12-22T11:39:55.596Z,4.63
2023-12-22T11:42:38.120Z,5.17
2023-12-22T11:45:06.233Z,6.47
2023-12-22T11:47:34.519Z,5.73
2023-12-22T11:50:02.277Z,5.80
2023-12-22T11:55:10.621Z,6.87
2023-12-22T11:57:42.053Z,6.80
2023-12-22T12:00:12.247Z,4.57
2023-12-22T12:02:41.713Z,8.03
2023-12-22T12:05:10.591Z,6.13
2023-12-22T12:07:52.450Z,7.97
2023-12-22T12:11:04.559Z,7.90
2023-12-22T12:13:32.873Z,6.50
2023-12-22T12:16:04.534Z,6.97
2023-12-22T12:18:33.127Z,5.97
2023-12-22T12:21:01.615Z,6.10
2023-12-22T12:23:29.734Z,4.23
2023-12-22T12:25:57.762Z,7.17
2023-12-22T12:28:30.830Z,4.90
2023-12-22T12:31:03.901Z,8.03
2023-12-22T12:33:31.724Z,8.27
2023-12-22T12:36:05.914Z,5.63
2023-12-22T12:39:02.949Z,4.53
2023-12-22T12:41:35.328Z,5.03
2023-12-22T12:44:07.070Z,6.30
2023-12-22T12:46:43.281Z,6.23
2023-12-22T12:49:12.943Z,5.43
2023-12-22T12:51:41.782Z,6.70
2023-12-22T12:54:09.752Z,3.77
2023-12-22T12:56:44.735Z,5.73
2023-12-22T12:59:17.538Z,5.40
2023-12-22T13:01:49.370Z,4.77
2023-12-22T13:04:17.120Z,4.97
2023-12-22T13:06:50.709Z,8.83
2023-12-22T13:09:19.637Z,5.80
2023-12-22T13:11:48.361Z,9.03
2023-12-22T13:14:28.813Z,4.17
2023-12-22T13:16:58.223Z,4.97
2023-12-22T13:19:26.932Z,5.80
2023-12-22T13:21:58.009Z,5.30
2023-12-22T13:24:27.037Z,5.53
2023-12-22T13:27:08.599Z,4.87
2023-12-22T13:29:46.895Z,4.30
2023-12-22T13:32:21.835Z,3.77
2023-12-22T13:34:56.394Z,4.30
2023-12-22T13:37:25.778Z,3.80
2023-12-22T13:39:53.219Z,5.77
2023-12-22T13:42:22.928Z,6.03
2023-12-22T13:44:51.354Z,4.67
2023-12-22T13:47:19.184Z,4.73
2023-12-22T13:49:49.930Z,5.67
2023-12-22T13:52:28.536Z,6.43
2023-12-22T13:54:58.215Z,3.73
2023-12-22T13:57:26.881Z,3.83
2023-12-22T13:59:54.819Z,4.77
2023-12-22T14:02:25.378Z,5.33
2023-12-22T14:04:53.246Z,4.83
2023-12-22T14:07:21.122Z,5.50
2023-12-22T14:09:48.352Z,3.67
2023-12-22T14:12:21.045Z,4.13
2023-12-22T14:14:55.794Z,2.90
2023-12-22T14:17:23.492Z,3.67
2023-12-22T14:19:50.677Z,3.70
2023-12-22T14:22:18.465Z,3.17
2023-12-22T14:24:45.649Z,6.23
2023-12-22T14:27:12.696Z,4.00
2023-12-22T14:29:42.021Z,4.17
2023-12-22T14:32:16.228Z,4.20
2023-12-22T14:34:43.913Z,4.33
2023-12-22T14:37:11.153Z,3.70
2023-12-22T14:39:38.309Z,4.33
2023-12-22T14:42:05.820Z,3.80
2023-12-22T14:44:33.001Z,6.23
2023-12-22T14:47:00.181Z,5.20
2023-12-22T14:49:27.978Z,5.93
2023-12-22T14:51:57.641Z,3.63
2023-12-22T14:54:24.757Z,7.57
2023-12-22T14:56:52.070Z,2.93
2023-12-22T14:59:19.357Z,7.30
2023-12-22T15:01:48.231Z,3.03
2023-12-22T15:04:17.521Z,5.37
2023-12-22T15:06:47.002Z,3.93
2023-12-22T15:09:14.207Z,5.63
2023-12-22T15:11:47.930Z,4.20
2023-12-22T15:14:15.287Z,4.93
2023-12-22T15:16:45.921Z,3.60
2023-12-22T15:19:16.294Z,3.00
2023-12-22T15:21:43.729Z,3.40
2023-12-22T15:24:11.364Z,3.90
2023-12-22T15:26:38.977Z,6.80
2023-12-22T15:29:06.174Z,3.23
2023-12-22T15:31:37.284Z,4.13
2023-12-22T15:34:07.235Z,4.77
2023-12-22T15:36:35.669Z,3.03
2023-12-22T15:39:03.133Z,5.07
2023-12-22T15:41:31.669Z,2.87
2023-12-22T15:43:58.962Z,3.33
2023-12-22T15:46:26.491Z,5.33
2023-12-22T15:48:54.497Z,5.17
2023-12-22T15:51:22.349Z,6.43
2023-12-22T15:53:49.691Z,4.10
2023-12-22T15:56:18.493Z,5.53
2023-12-22T15:58:46.315Z,4.17
2023-12-22T16:01:16.586Z,2.87
2023-12-22T16:03:51.436Z,3.70
2023-12-22T16:06:19.894Z,2.67
2023-12-22T16:08:47.486Z,4.13
2023-12-22T16:11:14.808Z,3.40
2023-12-22T16:13:44.070Z,5.37
2023-12-22T16:16:20.351Z,6.43
2023-12-22T16:18:48.158Z,7.60
2023-12-22T16:21:15.560Z,6.13
2023-12-22T16:23:42.910Z,5.50
2023-12-22T16:26:10.334Z,3.00
2023-12-22T16:28:37.760Z,3.00
2023-12-22T16:31:05.979Z,3.43
2023-12-22T16:33:33.480Z,6.00
2023-12-22T16:36:00.847Z,6.50
2023-12-22T16:38:28.228Z,5.17
2023-12-22T16:40:55.501Z,4.07
2023-12-22T16:43:22.550Z,4.10
2023-12-22T16:45:50.011Z,6.47
2023-12-22T16:48:19.219Z,5.63
2023-12-22T16:53:14.240Z,8.43
2023-12-22T16:55:41.683Z,4.83
2023-12-22T16:58:08.952Z,5.20
2023-12-22T17:00:36.281Z,3.87
2023-12-22T17:03:03.802Z,5.60
2023-12-22T17:05:31.380Z,4.03
2023-12-22T17:07:59.635Z,4.43
2023-12-22T17:10:27.148Z,5.77
2023-12-22T17:12:54.821Z,5.17
2023-12-22T17:15:22.028Z,4.13
2023-12-22T17:17:49.341Z,6.10
2023-12-22T17:20:16.775Z,7.60
2023-12-22T17:22:44.163Z,5.40
2023-12-22T17:25:12.258Z,3.37
2023-12-22T17:27:39.352Z,6.03
2023-12-22T17:30:07.339Z,9.30
2023-12-22T17:32:34.627Z,10.67
2023-12-22T17:35:01.897Z,5.07
2023-12-22T17:37:29.386Z,7.17
2023-12-22T17:39:56.792Z,7.27
2023-12-22T17:42:23.828Z,7.47
2023-12-22T17:44:51.260Z,5.00
2023-12-22T17:47:18.432Z,8.17
2023-12-22T17:49:45.533Z,7.13
2023-12-22T17:52:13.478Z,7.00
2023-12-22T17:54:40.996Z,7.30
2023-12-22T17:57:08.141Z,7.33
2023-12-22T17:59:35.468Z,6.07
2023-12-22T18:02:02.688Z,10.10
2023-12-22T18:04:29.808Z,4.57
2023-12-22T18:06:59.443Z,4.70
2023-12-22T18:09:26.923Z,6.07
2023-12-22T18:11:54.274Z,9.03
2023-12-22T18:14:21.578Z,4.23
2023-12-22T18:16:48.824Z,6.70
2023-12-22T18:19:16.057Z,5.83
2023-12-22T18:21:43.628Z,3.73
2023-12-22T18:24:10.773Z,11.83
2023-12-22T18:26:37.920Z,8.63
2023-12-22T18:29:05.551Z,5.13
2023-12-22T18:31:32.777Z,9.03
2023-12-22T18:33:59.964Z,5.30
2023-12-22T18:36:27.536Z,3.80
2023-12-22T18:38:54.716Z,4.27
2023-12-22T18:41:22.235Z,2.53
2023-12-22T18:43:49.643Z,3.80
2023-12-22T18:46:16.747Z,3.77
2023-12-22T18:48:47.226Z,10.37
2023-12-22T18:51:15.140Z,4.90
2023-12-22T18:53:42.792Z,4.20
2023-12-22T18:56:11.356Z,4.47
2023-12-22T18:58:41.128Z,3.10
2023-12-22T19:01:14.954Z,5.63
2023-12-22T19:03:49.712Z,5.00
2023-12-22T19:06:17.170Z,3.47
2023-12-22T19:08:44.582Z,3.80
2023-12-22T19:11:14.597Z,5.47
2023-12-22T19:13:42.993Z,3.43
2023-12-22T19:16:10.628Z,3.33
2023-12-22T19:18:38.181Z,4.97
2023-12-22T19:21:05.378Z,5.73
2023-12-22T19:23:32.468Z,2.93
2023-12-22T19:25:59.787Z,2.83
2023-12-22T19:28:27.069Z,6.50
2023-12-22T19:30:54.109Z,4.13
2023-12-22T19:33:21.557Z,3.17
2023-12-22T19:35:48.761Z,4.67
2023-12-22T19:38:19.542Z,6.07
2023-12-22T19:40:47.389Z,3.43
2023-12-22T19:43:15.144Z,7.67
2023-12-22T19:45:42.927Z,4.47
2023-12-22T19:48:10.619Z,6.10
2023-12-22T19:50:37.925Z,3.30
2023-12-22T19:53:05.323Z,3.50
2023-12-22T19:55:38.079Z,3.53
2023-12-22T19:58:05.493Z,4.43
2023-12-22T20:00:32.651Z,3.50
2023-12-22T20:02:59.913Z,7.73
2023-12-22T20:05:28.030Z,5.03
2023-12-22T20:07:55.329Z,5.93
2023-12-22T20:10:22.693Z,6.87
2023-12-22T20:12:49.847Z,3.47
2023-12-22T20:15:16.906Z,6.73
2023-12-22T20:17:46.116Z,3.63
2023-12-22T20:20:13.928Z,5.70
2023-12-22T20:22:41.077Z,3.67
2023-12-22T20:25:11.872Z,5.67
2023-12-22T20:27:39.217Z,6.03
2023-12-22T20:30:06.939Z,7.07
2023-12-22T20:32:34.184Z,6.37
2023-12-22T20:35:05.230Z,6.57
2023-12-22T20:37:32.365Z,6.60
2023-12-22T20:39:59.793Z,2.90
2023-12-22T20:42:26.984Z,2.73
2023-12-22T20:44:54.180Z,4.27
2023-12-22T20:47:21.494Z,6.47
2023-12-22T20:49:48.675Z,5.03
2023-12-22T20:52:15.742Z,5.60
2023-12-22T20:54:42.971Z,10.43
2023-12-22T20:57:10.097Z,4.50
2023-12-22T20:59:39.018Z,5.13
2023-12-22T21:02:06.451Z,6.37
2023-12-22T21:04:33.838Z,5.67
2023-12-22T21:07:01.281Z,4.00
2023-12-22T21:09:28.541Z,4.47
2023-12-22T21:11:56.411Z,4.67
2023-12-22T21:14:23.462Z,2.50
2023-12-22T21:16:51.100Z,3.70
2023-12-22T21:19:18.366Z,3.23
2023-12-22T21:21:46.217Z,3.57
2023-12-22T21:24:13.820Z,3.33
2023-12-22T21:26:40.958Z,2.80
2023-12-22T21:29:08.187Z,2.30
2023-12-22T21:31:35.420Z,2.30
2023-12-22T21:34:02.752Z,4.10
2023-12-22T21:36:30.921Z,3.37
2023-12-22T21:38:58.206Z,2.93
2023-12-22T21:41:25.341Z,3.37
2023-12-22T21:43:52.527Z,4.97
2023-12-22T21:46:19.803Z,3.67
2023-12-22T21:48:46.926Z,5.80
2023-12-22T21:51:14.013Z,8.53
2023-12-22T21:53:41.648Z,7.17
2023-12-22T21:56:08.925Z,3.20
2023-12-22T21:58:36.090Z,4.57
2023-12-22T22:01:06.498Z,2.50
2023-12-22T22:03:34.239Z,2.60
2023-12-22T22:06:01.643Z,2.20
2023-12-22T22:08:28.884Z,4.80
2023-12-22T22:10:56.236Z,3.27
2023-12-22T22:13:23.363Z,2.00
2023-12-22T22:15:50.593Z,4.47
2023-12-22T22:18:17.961Z,2.20
2023-12-22T22:20:45.219Z,4.03
2023-12-22T22:23:12.692Z,3.80
2023-12-22T22:25:40.036Z,3.90
2023-12-22T22:28:08.864Z,3.37
2023-12-22T22:30:36.298Z,4.33
2023-12-22T22:33:04.494Z,3.00
2023-12-22T22:35:31.582Z,2.63
2023-12-22T22:37:59.058Z,3.43
2023-12-22T22:40:26.191Z,2.73
2023-12-22T22:42:53.338Z,3.10
2023-12-22T22:45:21.375Z,2.33
2023-12-22T22:47:48.746Z,3.37
2023-12-22T22:50:16.216Z,2.57
2023-12-22T22:52:43.625Z,3.30
2023-12-22T22:55:10.716Z,2.10
2023-12-22T22:57:37.830Z,2.10
2023-12-22T23:00:13.162Z,2.70
2023-12-22T23:02:40.654Z,2.20
2023-12-22T23:05:09.145Z,2.07
2023-12-22T23:07:37.173Z,2.70
2023-12-22T23:10:04.804Z,3.00
2023-12-22T23:12:32.158Z,2.90
2023-12-22T23:14:59.609Z,1.93
2023-12-22T23:17:27.023Z,1.60
2023-12-22T23:19:54.289Z,2.10
2023-12-22T23:22:21.617Z,3.00
2023-12-22T23:24:48.815Z,3.27
2023-12-22T23:27:16.380Z,2.30
2023-12-22T23:29:43.667Z,5.93
2023-12-22T23:32:10.932Z,2.47
2023-12-22T23:34:38.101Z,1.90
2023-12-22T23:37:05.499Z,3.97
2023-12-22T23:39:33.025Z,2.13
2023-12-22T23:42:00.190Z,1.57
2023-12-22T23:44:27.783Z,2.60
2023-12-22T23:46:54.844Z,2.73
2023-12-22T23:49:22.200Z,1.40
2023-12-22T23:51:49.501Z,1.67
2023-12-22T23:54:16.638Z,1.57
2023-12-22T23:56:45.567Z,1.63
2023-12-22T23:59:12.995Z,2.20
